createdAt,value
2022-11-01T00:01:25.530Z,15.13
2022-11-01T00:03:51.900Z,15.12
2022-11-01T00:06:18.304Z,15.17
2022-11-01T00:08:44.658Z,15.15
2022-11-01T00:11:12.492Z,15.16
2022-11-01T00:13:38.812Z,15.18
2022-11-01T00:16:07.112Z,15.22
2022-11-01T00:18:33.443Z,15.25
2022-11-01T00:20:59.798Z,15.33
2022-11-01T00:23:26.182Z,15.37
2022-11-01T00:25:52.509Z,15.42
2022-11-01T00:28:18.862Z,15.50
2022-11-01T00:30:45.738Z,15.57
2022-11-01T00:33:13.403Z,15.64
2022-11-01T00:35:39.725Z,15.69
2022-11-01T00:38:06.130Z,15.75
2022-11-01T00:40:32.494Z,15.78
2022-11-01T00:42:58.814Z,15.81
2022-11-01T00:45:25.186Z,15.87
2022-11-01T00:47:51.500Z,15.90
2022-11-01T00:50:19.213Z,15.98
2022-11-01T00:52:45.528Z,15.97
2022-11-01T00:55:11.838Z,16.01
2022-11-01T00:57:38.224Z,16.03
2022-11-01T01:00:04.956Z,16.05
2022-11-01T01:02:31.547Z,16.03
2022-11-01T01:04:57.892Z,15.99
2022-11-01T01:07:25.548Z,16.00
2022-11-01T01:09:51.880Z,15.97
2022-11-01T01:12:18.205Z,16.00
2022-11-01T01:14:44.535Z,15.99
2022-11-01T01:17:10.884Z,15.96
2022-11-01T01:19:37.205Z,15.95
2022-11-01T01:22:03.574Z,15.94
2022-11-01T01:24:31.227Z,15.91
2022-11-01T01:26:57.566Z,15.95
2022-11-01T01:29:24.059Z,15.93
2022-11-01T01:31:50.427Z,15.90
2022-11-01T01:34:16.756Z,15.91
2022-11-01T01:36:43.207Z,15.89
2022-11-01T01:39:09.816Z,15.91
2022-11-01T01:41:37.508Z,15.90
2022-11-01T01:44:18.729Z,15.90
2022-11-01T01:46:45.081Z,15.87
2022-11-01T01:49:11.414Z,15.90
2022-11-01T01:51:37.745Z,15.87
2022-11-01T01:54:04.175Z,15.89
2022-11-01T01:56:32.456Z,15.91
2022-11-01T01:59:02.257Z,15.94
2022-11-01T02:01:28.946Z,15.92
2022-11-01T02:03:55.667Z,15.98
2022-11-01T02:08:52.425Z,16.00
2022-11-01T02:11:19.229Z,16.00
2022-11-01T02:13:45.651Z,16.04
2022-11-01T02:16:26.887Z,16.11
2022-11-01T02:19:01.083Z,16.20
2022-11-01T02:21:42.857Z,16.22
2022-11-01T02:24:28.187Z,16.27
2022-11-01T02:26:58.094Z,16.34
2022-11-01T02:29:37.059Z,16.34
2022-11-01T02:32:10.592Z,16.39
2022-11-01T02:34:41.897Z,16.50
2022-11-01T02:37:12.761Z,16.45
2022-11-01T02:39:40.850Z,16.44
2022-11-01T02:42:09.826Z,16.44
2022-11-01T02:44:38.479Z,16.45
2022-11-01T02:47:05.843Z,16.43
2022-11-01T02:49:35.820Z,16.41
2022-11-01T02:52:03.611Z,16.41
2022-11-01T02:54:32.110Z,16.40
2022-11-01T02:56:59.768Z,16.33
2022-11-01T02:59:27.912Z,16.38
2022-11-01T03:01:58.602Z,16.40
2022-11-01T03:04:25.213Z,16.39
2022-11-01T03:06:55.111Z,16.45
2022-11-01T03:09:21.543Z,16.39
2022-11-01T03:11:53.724Z,16.35
2022-11-01T03:14:24.070Z,16.32
2022-11-01T03:16:53.917Z,16.32
2022-11-01T03:19:34.969Z,16.40
2022-11-01T03:22:06.539Z,16.39
2022-11-01T03:24:34.924Z,16.43
2022-11-01T03:27:04.204Z,16.42
2022-11-01T03:29:32.002Z,16.48
2022-11-01T03:32:00.708Z,16.48
2022-11-01T03:34:27.060Z,16.49
2022-11-01T03:36:57.162Z,16.51
2022-11-01T03:39:26.911Z,16.48
2022-11-01T03:41:56.672Z,16.49
2022-11-01T03:44:23.158Z,16.52
2022-11-01T03:46:50.237Z,16.49
2022-11-01T03:49:16.990Z,16.53
2022-11-01T03:51:43.349Z,16.53
2022-11-01T03:54:09.696Z,16.56
2022-11-01T03:56:37.429Z,16.54
2022-11-01T03:59:03.879Z,16.65
2022-11-01T04:01:30.277Z,16.64
2022-11-01T04:03:56.646Z,16.60
2022-11-01T04:06:22.976Z,16.59
2022-11-01T04:08:49.313Z,16.54
2022-11-01T04:11:15.649Z,16.49
2022-11-01T04:13:43.363Z,16.52
2022-11-01T04:16:10.010Z,16.43
2022-11-01T04:18:36.428Z,16.38
2022-11-01T04:21:04.337Z,16.38
2022-11-01T04:23:30.662Z,16.31
2022-11-01T04:25:57.009Z,16.20
2022-11-01T04:28:23.387Z,16.12
2022-11-01T04:30:51.514Z,16.14
2022-11-01T04:33:17.834Z,16.13
2022-11-01T04:35:44.293Z,16.12
2022-11-01T04:38:11.124Z,16.07
2022-11-01T04:40:37.537Z,15.99
2022-11-01T04:43:03.932Z,15.89
2022-11-01T04:45:30.343Z,15.83
2022-11-01T04:48:05.317Z,15.93
2022-11-01T04:50:32.444Z,15.86
2022-11-01T04:52:59.078Z,15.76
2022-11-01T04:55:25.594Z,15.81
2022-11-01T04:57:51.961Z,15.73
2022-11-01T05:00:18.318Z,15.73
2022-11-01T05:02:44.672Z,15.67
2022-11-01T05:05:12.472Z,15.57
2022-11-01T05:07:38.966Z,15.54
2022-11-01T05:10:05.954Z,15.52
2022-11-01T05:12:32.375Z,15.46
2022-11-01T05:14:58.690Z,15.40
2022-11-01T05:17:25.039Z,15.36
2022-11-01T05:19:51.375Z,15.34
2022-11-01T05:22:19.042Z,15.29
2022-11-01T05:24:45.371Z,15.24
2022-11-01T05:27:11.709Z,15.27
2022-11-01T05:29:38.020Z,15.17
2022-11-01T05:32:04.386Z,15.21
2022-11-01T05:34:30.725Z,15.11
2022-11-01T05:36:57.042Z,15.03
2022-11-01T05:39:24.736Z,15.03
2022-11-01T05:41:51.056Z,15.09
2022-11-01T05:44:17.385Z,14.97
2022-11-01T05:46:43.710Z,14.92
2022-11-01T05:49:10.018Z,14.88
2022-11-01T05:51:36.336Z,14.84
2022-11-01T05:54:02.668Z,14.85
2022-11-01T05:56:30.333Z,14.73
2022-11-01T05:58:56.664Z,14.70
2022-11-01T06:01:23.032Z,14.65
2022-11-01T06:03:49.527Z,14.53
2022-11-01T06:06:15.857Z,14.46
2022-11-01T06:08:42.186Z,14.38
2022-11-01T06:11:08.502Z,14.35
2022-11-01T06:13:36.196Z,14.27
2022-11-01T06:16:03.145Z,14.21
2022-11-01T06:18:29.578Z,14.12
2022-11-01T06:20:56.533Z,14.11
2022-11-01T06:23:23.013Z,14.13
2022-11-01T06:25:49.334Z,14.16
2022-11-01T06:28:15.873Z,14.11
2022-11-01T06:30:43.545Z,14.05
2022-11-01T06:33:09.862Z,14.02
2022-11-01T06:35:36.186Z,13.95
2022-11-01T06:38:02.666Z,13.91
2022-11-01T06:40:29.000Z,13.90
2022-11-01T06:42:58.612Z,13.87
2022-11-01T06:45:24.965Z,13.89
2022-11-01T06:47:52.629Z,13.87
2022-11-01T06:50:18.949Z,13.85
2022-11-01T06:52:45.269Z,13.84
2022-11-01T06:55:11.600Z,13.78
2022-11-01T06:57:37.922Z,13.75
2022-11-01T07:00:04.975Z,13.67
2022-11-01T07:02:31.377Z,13.64
2022-11-01T07:04:59.143Z,13.52
2022-11-01T07:07:25.476Z,13.60
2022-11-01T07:09:51.980Z,13.60
2022-11-01T07:12:18.433Z,13.57
2022-11-01T07:14:44.760Z,13.61
2022-11-01T07:17:11.083Z,13.57
2022-11-01T07:19:37.402Z,13.58
2022-11-01T07:22:05.044Z,13.61
2022-11-01T07:24:31.351Z,13.58
2022-11-01T07:26:57.663Z,13.58
2022-11-01T07:29:23.996Z,13.66
2022-11-01T07:31:50.296Z,13.64
2022-11-01T07:34:16.605Z,13.66
2022-11-01T07:36:42.929Z,13.64
2022-11-01T07:39:10.613Z,13.58
2022-11-01T07:41:36.922Z,13.55
2022-11-01T07:44:03.329Z,13.54
2022-11-01T07:46:30.862Z,13.57
2022-11-01T07:48:57.215Z,13.53
2022-11-01T07:51:23.534Z,13.58
2022-11-01T07:53:50.002Z,13.63
2022-11-01T07:56:17.773Z,13.62
2022-11-01T07:58:44.097Z,13.59
2022-11-01T08:01:10.812Z,13.64
2022-11-01T08:03:37.205Z,13.62
2022-11-01T08:06:03.692Z,13.67
2022-11-01T08:08:30.053Z,13.65
2022-11-01T08:10:58.936Z,13.81
2022-11-01T08:13:26.623Z,13.74
2022-11-01T08:15:58.657Z,13.75
2022-11-01T08:18:24.963Z,13.74
2022-11-01T08:20:51.308Z,13.79
2022-11-01T08:23:17.782Z,13.78
2022-11-01T08:25:44.419Z,13.83
2022-11-01T08:28:11.869Z,13.88
2022-11-01T08:30:40.416Z,13.92
2022-11-01T08:33:07.077Z,13.98
2022-11-01T08:35:33.984Z,14.03
2022-11-01T08:38:00.678Z,14.05
2022-11-01T08:40:27.616Z,14.20
2022-11-01T08:42:54.643Z,14.19
2022-11-01T08:45:21.149Z,14.26
2022-11-01T08:47:48.828Z,14.23
2022-11-01T08:50:16.699Z,14.32
2022-11-01T08:52:43.213Z,14.31
2022-11-01T08:55:10.182Z,14.34
2022-11-01T08:57:36.547Z,14.34
2022-11-01T09:00:03.458Z,14.39
2022-11-01T09:02:29.804Z,14.46
2022-11-01T09:04:57.491Z,14.57
2022-11-01T09:07:23.777Z,14.51
2022-11-01T09:09:50.037Z,14.56
2022-11-01T09:12:18.396Z,14.70
2022-11-01T09:14:48.247Z,14.64
2022-11-01T09:17:14.810Z,14.67
2022-11-01T09:19:41.117Z,14.66
2022-11-01T09:22:08.750Z,14.70
2022-11-01T09:24:35.027Z,14.80
2022-11-01T09:27:01.337Z,14.87
2022-11-01T09:29:27.700Z,14.92
2022-11-01T09:31:54.061Z,15.00
2022-11-01T09:34:20.423Z,15.00
2022-11-01T09:36:46.729Z,15.01
2022-11-01T09:39:14.513Z,15.04
2022-11-01T09:41:42.826Z,15.16
2022-11-01T09:44:12.426Z,15.15
2022-11-01T09:46:43.738Z,15.14
2022-11-01T09:49:11.997Z,15.13
2022-11-01T09:51:38.718Z,15.24
2022-11-01T09:54:05.027Z,15.29
2022-11-01T09:56:38.407Z,15.36
2022-11-01T09:59:08.304Z,15.39
2022-11-01T10:01:44.590Z,15.42
2022-11-01T10:04:44.180Z,15.45
2022-11-01T10:07:16.825Z,15.43
2022-11-01T10:09:47.168Z,15.53
2022-11-01T10:12:23.168Z,15.49
2022-11-01T10:14:55.442Z,15.54
2022-11-01T10:17:28.117Z,15.54
2022-11-01T10:19:54.461Z,15.65
2022-11-01T10:22:26.355Z,15.64
2022-11-01T10:24:55.636Z,15.63
2022-11-01T10:27:26.035Z,15.68
2022-11-01T10:29:58.412Z,15.67
2022-11-01T10:32:28.098Z,15.75
2022-11-01T10:34:57.615Z,15.73
2022-11-01T10:37:26.870Z,15.79
2022-11-01T10:39:56.928Z,15.79
2022-11-01T10:42:28.906Z,15.77
2022-11-01T10:44:57.648Z,15.78
2022-11-01T10:47:24.622Z,15.88
2022-11-01T10:50:05.425Z,15.81
2022-11-01T10:52:35.379Z,15.83
2022-11-01T10:55:02.727Z,15.80
2022-11-01T10:57:34.594Z,15.80
2022-11-01T11:00:02.494Z,15.76
2022-11-01T11:02:33.486Z,15.75
2022-11-01T11:04:59.865Z,15.68
2022-11-01T11:07:29.313Z,15.65
2022-11-01T11:09:55.903Z,15.61
2022-11-01T11:12:23.293Z,15.70
2022-11-01T11:14:52.942Z,15.69
2022-11-01T11:17:21.254Z,15.66
2022-11-01T11:19:47.564Z,15.73
2022-11-01T11:22:14.400Z,15.73
2022-11-01T11:24:41.825Z,15.74
2022-11-01T11:27:11.978Z,15.78
2022-11-01T11:29:39.657Z,15.72
2022-11-01T11:32:13.894Z,15.81
2022-11-01T11:34:41.047Z,15.88
2022-11-01T11:37:07.928Z,15.90
2022-11-01T11:39:35.365Z,15.86
2022-11-01T11:42:14.318Z,15.84
2022-11-01T11:44:42.406Z,15.85
2022-11-01T11:47:26.452Z,15.90
2022-11-01T11:49:54.529Z,15.91
2022-11-01T11:52:24.378Z,15.97
2022-11-01T11:54:54.632Z,15.98
2022-11-01T11:57:22.454Z,15.99
2022-11-01T11:59:53.108Z,15.97
2022-11-01T12:02:21.741Z,15.94
2022-11-01T12:04:52.182Z,15.95
2022-11-01T12:07:25.453Z,16.02
2022-11-01T12:09:51.745Z,16.08
2022-11-01T12:12:19.232Z,16.03
2022-11-01T12:14:45.671Z,16.07
2022-11-01T12:17:25.598Z,16.14
2022-11-01T12:19:52.852Z,16.28
2022-11-01T12:22:19.505Z,16.32
2022-11-01T12:24:48.916Z,16.32
2022-11-01T12:27:17.000Z,16.36
2022-11-01T12:29:47.613Z,16.39
2022-11-01T12:32:16.481Z,16.46
2022-11-01T12:34:44.795Z,16.43
2022-11-01T12:37:13.781Z,16.38
2022-11-01T12:39:45.532Z,16.38
2022-11-01T12:42:17.789Z,16.35
2022-11-01T12:44:48.566Z,16.43
2022-11-01T12:47:17.974Z,16.45
2022-11-01T12:49:47.091Z,16.42
2022-11-01T12:52:16.008Z,16.46
2022-11-01T12:54:45.750Z,16.39
2022-11-01T12:57:15.656Z,16.38
2022-11-01T12:59:42.635Z,16.35
2022-11-01T13:02:21.096Z,16.38
2022-11-01T13:04:51.353Z,16.39
2022-11-01T13:07:24.367Z,16.41
2022-11-01T13:09:55.187Z,16.32
2022-11-01T13:12:31.761Z,16.31
2022-11-01T13:15:03.547Z,16.33
2022-11-01T13:17:34.660Z,16.31
2022-11-01T13:20:08.851Z,16.30
2022-11-01T13:22:39.667Z,16.25
2022-11-01T13:25:10.674Z,16.30
2022-11-01T13:27:41.241Z,16.24
2022-11-01T13:30:09.971Z,16.23
2022-11-01T13:32:38.512Z,16.31
2022-11-01T13:35:20.243Z,16.23
2022-11-01T13:37:50.788Z,16.30
2022-11-01T13:40:21.610Z,16.33
2022-11-01T13:42:52.544Z,16.25
2022-11-01T13:45:28.495Z,16.15
2022-11-01T13:47:56.556Z,16.18
2022-11-01T13:50:43.800Z,16.18
2022-11-01T13:53:14.127Z,16.17
2022-11-01T13:55:43.045Z,16.21
2022-11-01T13:58:13.775Z,16.17
2022-11-01T14:00:41.717Z,16.18
2022-11-01T14:03:18.674Z,16.13
2022-11-01T14:05:45.928Z,16.17
2022-11-01T14:08:13.891Z,16.16
2022-11-01T14:10:47.669Z,16.12
2022-11-01T14:13:16.578Z,16.20
2022-11-01T14:15:57.764Z,16.15
2022-11-01T14:18:24.091Z,16.17
2022-11-01T14:20:51.628Z,16.18
2022-11-01T14:23:50.903Z,16.14
2022-11-01T14:26:23.891Z,16.10
2022-11-01T14:28:52.427Z,16.12
2022-11-01T14:31:19.842Z,16.10
2022-11-01T14:33:46.432Z,16.06
2022-11-01T14:36:13.301Z,16.07
2022-11-01T14:38:42.989Z,16.03
2022-11-01T14:41:13.248Z,16.01
2022-11-01T14:43:42.788Z,16.07
2022-11-01T14:46:12.119Z,15.98
2022-11-01T14:48:41.508Z,16.04
2022-11-01T14:51:11.318Z,16.11
2022-11-01T14:53:37.914Z,16.05
2022-11-01T14:56:05.595Z,16.11
2022-11-01T14:58:31.878Z,16.13
2022-11-01T15:01:03.470Z,16.18
2022-11-01T15:03:31.159Z,16.20
2022-11-01T15:05:57.457Z,16.19
2022-11-01T15:08:25.666Z,16.20
2022-11-01T15:10:52.900Z,16.28
2022-11-01T15:13:20.075Z,16.35
2022-11-01T15:15:51.807Z,16.32
2022-11-01T15:18:19.846Z,16.15
2022-11-01T15:20:49.142Z,16.05
2022-11-01T15:23:19.429Z,16.04
2022-11-01T15:25:50.980Z,15.94
2022-11-01T15:28:21.162Z,15.92
2022-11-01T15:30:52.913Z,15.84
2022-11-01T15:33:20.371Z,15.79
2022-11-01T15:35:53.935Z,15.74
2022-11-01T15:38:21.118Z,15.75
2022-11-01T15:40:47.698Z,15.75
2022-11-01T15:43:16.842Z,15.66
2022-11-01T15:45:43.595Z,15.61
2022-11-01T15:48:12.464Z,15.53
2022-11-01T15:50:41.088Z,15.48
2022-11-01T15:53:10.787Z,15.35
2022-11-01T15:55:39.632Z,15.29
2022-11-01T15:58:08.094Z,15.24
2022-11-01T16:00:36.287Z,15.20
2022-11-01T16:03:05.764Z,15.11
2022-11-01T16:05:34.592Z,15.09
2022-11-01T16:08:00.978Z,15.01
2022-11-01T16:10:29.608Z,14.98
2022-11-01T16:12:56.393Z,14.97
2022-11-01T16:15:25.635Z,14.89
2022-11-01T16:17:54.407Z,14.90
2022-11-01T16:20:31.729Z,14.84
2022-11-01T16:22:59.187Z,14.75
2022-11-01T16:25:28.399Z,14.72
2022-11-01T16:28:04.591Z,14.68
2022-11-01T16:30:32.292Z,14.67
2022-11-01T16:33:06.266Z,14.67
2022-11-01T16:35:36.686Z,14.60
2022-11-01T16:38:03.155Z,14.66
2022-11-01T16:40:29.843Z,14.65
2022-11-01T16:42:57.359Z,14.60
2022-11-01T16:45:25.069Z,14.60
2022-11-01T16:47:59.491Z,14.58
2022-11-01T16:50:25.769Z,14.54
2022-11-01T16:52:52.063Z,14.50
2022-11-01T16:55:19.597Z,14.58
2022-11-01T16:57:47.824Z,14.51
2022-11-01T17:00:15.107Z,14.48
2022-11-01T17:02:42.783Z,14.48
2022-11-01T17:05:17.234Z,14.47
2022-11-01T17:07:43.520Z,14.42
2022-11-01T17:10:15.413Z,14.34
2022-11-01T17:12:41.706Z,14.32
2022-11-01T17:15:08.558Z,14.37
2022-11-01T17:17:34.906Z,14.33
2022-11-01T17:20:03.077Z,14.25
2022-11-01T17:22:32.609Z,14.20
2022-11-01T17:24:59.064Z,14.26
2022-11-01T17:27:25.350Z,14.31
2022-11-01T17:29:51.704Z,14.27
2022-11-01T17:32:18.086Z,14.29
2022-11-01T17:34:44.394Z,14.28
2022-11-01T17:37:14.424Z,14.27
2022-11-01T17:39:40.722Z,14.24
2022-11-01T17:42:08.923Z,14.21
2022-11-01T17:44:35.218Z,14.18
2022-11-01T17:47:01.585Z,14.18
2022-11-01T17:49:27.903Z,14.17
2022-11-01T17:51:55.280Z,14.12
2022-11-01T17:54:23.214Z,14.11
2022-11-01T17:56:49.645Z,14.14
2022-11-01T17:59:15.959Z,14.12
2022-11-01T18:01:42.439Z,14.09
2022-11-01T18:04:08.774Z,14.11
2022-11-01T18:06:35.116Z,14.05
2022-11-01T18:09:01.416Z,14.03
2022-11-01T18:11:37.885Z,14.05
2022-11-01T18:14:09.852Z,14.03
2022-11-01T18:16:39.921Z,14.03
2022-11-01T18:19:14.452Z,14.07
2022-11-01T18:21:48.492Z,14.04
2022-11-01T18:24:22.264Z,14.10
2022-11-01T18:26:50.704Z,14.14
2022-11-01T18:29:18.208Z,14.16
2022-11-01T18:31:46.715Z,14.19
2022-11-01T18:34:17.631Z,14.25
2022-11-01T18:36:47.088Z,14.21
2022-11-01T18:39:16.910Z,14.17
2022-11-01T18:41:44.089Z,14.13
2022-11-01T18:44:12.318Z,14.11
2022-11-01T18:46:43.014Z,14.05
2022-11-01T18:49:10.246Z,13.97
2022-11-01T18:51:38.279Z,13.95
2022-11-01T18:54:15.725Z,13.93
2022-11-01T18:56:46.738Z,13.90
2022-11-01T18:59:15.727Z,13.95
2022-11-01T19:01:42.166Z,13.98
2022-11-01T19:04:10.756Z,13.90
2022-11-01T19:06:37.071Z,13.88
2022-11-01T19:09:13.112Z,13.89
2022-11-01T19:11:39.409Z,13.87
2022-11-01T19:14:05.671Z,13.76
2022-11-01T19:16:33.300Z,13.74
2022-11-01T19:18:59.647Z,13.75
2022-11-01T19:21:27.190Z,13.71
2022-11-01T19:23:54.399Z,13.71
2022-11-01T19:26:22.470Z,13.69
2022-11-01T19:28:52.201Z,13.65
2022-11-01T19:31:26.246Z,13.70
2022-11-01T19:33:56.280Z,13.72
2022-11-01T19:36:23.392Z,13.71
2022-11-01T19:38:50.559Z,13.67
2022-11-01T19:41:20.174Z,13.63
2022-11-01T19:43:46.650Z,13.71
2022-11-01T19:46:15.332Z,13.76
2022-11-01T19:48:41.649Z,13.75
2022-11-01T19:51:14.856Z,13.77
2022-11-01T19:53:41.184Z,13.79
2022-11-01T19:56:09.727Z,13.81
2022-11-01T19:58:39.313Z,13.87
2022-11-01T20:01:20.475Z,13.90
2022-11-01T20:03:47.936Z,13.90
2022-11-01T20:06:16.427Z,13.98
2022-11-01T20:08:43.111Z,13.97
2022-11-01T20:11:09.407Z,13.95
2022-11-01T20:13:35.720Z,13.96
2022-11-01T20:16:02.001Z,13.97
2022-11-01T20:18:28.364Z,14.02
2022-11-01T20:20:54.643Z,14.00
2022-11-01T20:23:26.735Z,14.04
2022-11-01T20:25:53.618Z,14.02
2022-11-01T20:28:19.920Z,13.99
2022-11-01T20:30:46.297Z,14.03
2022-11-01T20:33:12.590Z,13.97
2022-11-01T20:35:38.874Z,13.95
2022-11-01T20:38:05.205Z,13.90
2022-11-01T20:40:32.832Z,13.94
2022-11-01T20:42:59.114Z,13.92
2022-11-01T20:45:25.405Z,13.88
2022-11-01T20:47:51.734Z,13.85
2022-11-01T20:50:18.810Z,13.93
2022-11-01T20:52:45.092Z,13.86
2022-11-01T20:55:12.402Z,13.88
2022-11-01T20:57:40.055Z,13.89
2022-11-01T21:00:07.435Z,13.85
2022-11-01T21:02:33.739Z,13.93
2022-11-01T21:05:01.140Z,13.96
2022-11-01T21:07:28.215Z,13.98
2022-11-01T21:09:54.531Z,14.00
2022-11-01T21:12:30.738Z,14.02
2022-11-01T21:15:00.285Z,14.04
2022-11-01T21:17:27.235Z,14.03
2022-11-01T21:19:53.526Z,14.05
2022-11-01T21:22:20.592Z,14.04
2022-11-01T21:24:47.618Z,14.07
2022-11-01T21:27:22.824Z,14.09
2022-11-01T21:29:49.510Z,14.13
2022-11-01T21:32:23.391Z,14.15
2022-11-01T21:34:50.506Z,14.14
2022-11-01T21:37:19.864Z,14.18
2022-11-01T21:39:46.223Z,14.17
2022-11-01T21:42:24.719Z,14.23
2022-11-01T21:44:50.994Z,14.23
2022-11-01T21:47:19.670Z,14.29
2022-11-01T21:49:47.651Z,14.32
2022-11-01T21:52:14.030Z,14.36
2022-11-01T21:54:40.990Z,14.37
2022-11-01T21:57:08.022Z,14.32
2022-11-01T21:59:34.612Z,14.43
2022-11-01T22:02:01.342Z,14.39
2022-11-01T22:04:29.023Z,14.46
2022-11-01T22:06:57.132Z,14.48
2022-11-01T22:09:23.802Z,14.51
2022-11-01T22:11:50.106Z,14.41
2022-11-01T22:14:16.467Z,14.41
2022-11-01T22:16:42.767Z,14.40
2022-11-01T22:19:09.070Z,14.41
2022-11-01T22:21:35.638Z,14.42
2022-11-01T22:24:03.651Z,14.48
2022-11-01T22:26:29.953Z,14.49
2022-11-01T22:28:56.418Z,14.46
2022-11-01T22:31:22.790Z,14.46
2022-11-01T22:33:52.097Z,14.39
2022-11-01T22:36:21.027Z,14.39
2022-11-01T22:38:47.797Z,14.28
2022-11-01T22:41:16.613Z,14.35
2022-11-01T22:43:44.110Z,14.22
2022-11-01T22:46:20.856Z,14.19
2022-11-01T22:48:47.596Z,14.14
2022-11-01T22:51:19.354Z,14.11
2022-11-01T22:53:45.817Z,14.07
2022-11-01T22:56:12.384Z,14.11
2022-11-01T22:58:39.995Z,14.09
2022-11-01T23:01:12.997Z,14.07
2022-11-01T23:03:40.121Z,14.13
2022-11-01T23:06:12.950Z,14.09
2022-11-01T23:08:39.218Z,14.12
2022-11-01T23:11:05.514Z,14.13
2022-11-01T23:13:33.160Z,14.16
2022-11-01T23:16:01.688Z,14.10
2022-11-01T23:18:29.526Z,14.15
2022-11-01T23:20:58.975Z,14.13
2022-11-01T23:23:25.554Z,14.09
2022-11-01T23:25:53.051Z,14.00
2022-11-01T23:28:19.343Z,13.99
2022-11-01T23:30:46.518Z,13.94
2022-11-01T23:33:15.043Z,13.95
2022-11-01T23:35:41.460Z,13.87
2022-11-01T23:38:17.058Z,13.90
2022-11-01T23:40:43.415Z,13.79
2022-11-01T23:43:16.604Z,13.75
2022-11-01T23:45:42.948Z,13.74
2022-11-01T23:48:09.371Z,13.65
2022-11-01T23:50:37.027Z,13.66
2022-11-01T23:53:04.751Z,13.65
2022-11-01T23:55:32.316Z,13.68
2022-11-01T23:57:59.850Z,13.63
